Aérodrome :
LOGIN :

S'inscrire | Disclaimer

   EN    FR    IT 

 










Légende :    VFR   VFR Marginal   IFR   IFR Intensif   IFR Très Intensif
Visi : 
Plafond : 
>= 8 km
>= 3000ft
5 à 8 km
1000 à 3000 ft
1500m à 5 km
500 à 1000 ft
800 à 1500m
200 à 500 ft
< 800m
< 200 ft
Symboles :   Orages  Brouillard  Fortes neiges  Fortes précipitations  Vent > 20 kt
SIGMETs :   Divers  Orages  Givrage  Turbulence  Onde Orograph.  Cendres Volcan.







- Altitude de l'aérodrome : 1400 ft


LSME - Luzern Emmen

DERNIER METAR :
  • 140750Z 28006KT 220V350 5000 +RA SCT015 OVC020 02/01 Q1007 RERA RMK WHT

METARs EXPIRÉS :
  • 140650Z 24016KT 9999 -RA FEW038 SCT050 OVC067 08/02 Q1004 RMK BLU
  • 140550Z 23018G29KT 9999 FEW062 SCT073 07/02 Q1004 RMK BLU+

Prévision TAF périmée.
Pas de NOTAMs connus pour ce terrain.
1 SIGMET publié pour la FIR Switzerland (LSAS) :
 
Turbulence forte
LSAS SIGMET 3 VALID 140700/140800 LSZH
LSAS SWITZERLAND FIR SEV TURB FCST N OF LINE N4601 E00551 - N4715 E00958 SFC/FL150 STNR WKN=



MET'MAP, la Météo Aéronautique d'un coup d'oeil ! - Copyright ORBIFLY Décembre 2007 - Disclaimer

ORBIFLY MET'MAP TEAM :

Programmation & Développement : Alexandra Zaïnal
Conception & Développement : Baudouin d'Aumeries
Co-Programmation & Développement : Marc-Olivier Méhu
Soutien technique & logistique : Manuel Goepfert

Contact : metmap@orbifly.com




SOURCES & CREDITS :

   NOAA